Pirane, Argentina
Current Conditions -  °F | °C
As of 9:00 PM on Monday 24 Nov 2014 (Local Time) from SARF Reporting Station
Clear Clear  
Wind Chill: 82°   Ceiling: Unl
Heat Index: 88°   Visibility: 6mi
Dew Point: 73°   Wind: 8mph
Humidity: 74%   Direction: 50°NE
Pressure: 29.65"   Gusts: NA
Location:  25.72°S, 59.1°W
Report Text: SARF 250000Z 05007KT CAVOK 28/23 Q1004
Loading
Personal Weather Stations






























Interactive Weather Map New forecast layout! Learn more

10-Day Weather Forecast

Advertisements
Track Severe Weather on mobile